Time;durP1;ratioP1;P1;durP2;ratioP2;P2;SDS_P1;SDS_P2;PMS_P1;PMS_P2;Temp;Humidity;BMP_temperature;BMP_pressure;BME280_temperature;BME280_humidity;BME280_pressure;Samples;Min_cycle;Max_cycle;Signal;HPM_P1;HPM_P2
2021/10/12 00:00:33;;;;;;;1.42;1.33;;;11.40;98.50;;;;;;5052996;28;20187;-68
2021/10/12 00:02:59;;;;;;;1.50;1.30;;;11.40;98.50;;;;;;5050946;28;20676;-68
2021/10/12 00:05:25;;;;;;;2.72;1.08;;;11.40;98.50;;;;;;5049701;28;20188;-69
2021/10/12 00:07:52;;;;;;;1.20;1.10;;;11.40;98.50;;;;;;5051646;28;20186;-68
2021/10/12 00:10:17;;;;;;;1.27;0.82;;;11.40;98.50;;;;;;5059789;28;20183;-69
2021/10/12 00:12:43;;;;;;;1.58;0.98;;;11.30;98.50;;;;;;5050033;28;20210;-70
2021/10/12 00:15:10;;;;;;;1.02;0.93;;;11.20;98.50;;;;;;5055087;28;20652;-70
2021/10/12 00:17:36;;;;;;;0.80;0.80;;;11.20;98.50;;;;;;5046760;28;20595;-68
2021/10/12 00:20:02;;;;;;;0.90;0.90;;;11.10;98.50;;;;;;5053991;28;20214;-70
2021/10/12 00:22:28;;;;;;;0.77;0.77;;;11.10;98.50;;;;;;5044523;28;20187;-70
2021/10/12 00:24:54;;;;;;;0.88;0.82;;;11.00;98.50;;;;;;5051197;28;20679;-70
2021/10/12 00:27:19;;;;;;;1.45;1.10;;;11.00;98.50;;;;;;5051465;28;20621;-70
2021/10/12 00:29:45;;;;;;;1.17;0.98;;;11.00;98.50;;;;;;5047743;28;20180;-70
2021/10/12 00:32:11;;;;;;;1.30;1.20;;;11.00;98.50;;;;;;5051899;28;20183;-70
2021/10/12 00:34:36;;;;;;;1.05;1.00;;;11.00;98.50;;;;;;5054161;28;20273;-70
2021/10/12 00:37:02;;;;;;;1.17;1.17;;;11.00;98.50;;;;;;5051015;28;20186;-70
2021/10/12 00:39:28;;;;;;;0.70;0.70;;;11.00;98.50;;;;;;5049766;28;20183;-70
2021/10/12 00:41:54;;;;;;;0.73;0.73;;;10.90;98.50;;;;;;5044217;28;20287;-70
2021/10/12 00:44:20;;;;;;;0.60;0.60;;;10.80;98.50;;;;;;5047086;28;20209;-70
2021/10/12 00:46:46;;;;;;;0.80;0.80;;;10.80;98.50;;;;;;5050913;28;20183;-70
2021/10/12 00:49:11;;;;;;;0.70;0.70;;;10.70;98.50;;;;;;5048772;28;20253;-70
2021/10/12 00:51:37;;;;;;;0.45;0.45;;;10.70;98.50;;;;;;5050863;28;20186;-70
2021/10/12 00:54:03;;;;;;;0.70;0.70;;;10.70;98.50;;;;;;5048171;28;20595;-70
2021/10/12 00:56:30;;;;;;;0.80;0.80;;;10.70;98.50;;;;;;5050547;28;20179;-70
2021/10/12 00:58:56;;;;;;;3.53;0.80;;;10.60;98.50;;;;;;5050151;28;20207;-70
2021/10/12 01:01:22;;;;;;;0.50;0.50;;;10.60;98.50;;;;;;5052793;28;20226;-70
2021/10/12 01:03:47;;;;;;;2.13;0.70;;;10.60;98.50;;;;;;5048980;28;20748;-70
2021/10/12 01:06:14;;;;;;;0.85;0.80;;;10.60;98.50;;;;;;5055345;28;20182;-70
2021/10/12 01:08:40;;;;;;;0.60;0.60;;;10.60;98.50;;;;;;5054162;28;20283;-70
2021/10/12 01:11:07;;;;;;;0.52;0.52;;;10.60;98.50;;;;;;5049797;28;20270;-70
2021/10/12 01:13:33;;;;;;;0.55;0.55;;;10.60;98.50;;;;;;5051429;28;20208;-70
2021/10/12 01:15:59;;;;;;;0.75;0.65;;;10.60;98.50;;;;;;5047989;28;20197;-71
2021/10/12 01:18:24;;;;;;;0.70;0.70;;;10.60;98.50;;;;;;5047587;28;20238;-70
2021/10/12 01:20:51;;;;;;;0.90;0.60;;;10.60;98.50;;;;;;5051573;28;20188;-70
2021/10/12 01:23:17;;;;;;;1.27;0.50;;;10.70;98.50;;;;;;5047843;28;20195;-70
2021/10/12 01:25:43;;;;;;;0.65;0.65;;;10.70;98.50;;;;;;5055861;28;20182;-70
2021/10/12 01:28:09;;;;;;;0.50;0.50;;;10.70;98.50;;;;;;5049515;28;20189;-70
2021/10/12 01:30:38;;;;;;;0.60;0.52;;;10.70;98.50;;;;;;5053306;28;20221;-70
2021/10/12 01:33:06;;;;;;;0.43;0.43;;;10.80;98.50;;;;;;5049801;28;20234;-70
2021/10/12 01:35:32;;;;;;;0.40;0.40;;;10.70;98.50;;;;;;5050108;28;20192;-70
2021/10/12 01:37:58;;;;;;;0.40;0.40;;;10.80;98.50;;;;;;5053742;28;20549;-70
2021/10/12 01:40:25;;;;;;;1.60;0.50;;;10.80;98.50;;;;;;5051908;28;20260;-70
2021/10/12 01:42:50;;;;;;;0.45;0.45;;;10.70;98.50;;;;;;5050205;28;20237;-70
2021/10/12 01:45:16;;;;;;;0.35;0.35;;;10.70;98.50;;;;;;5050547;28;20216;-70
2021/10/12 01:47:43;;;;;;;0.40;0.40;;;10.70;98.50;;;;;;5056577;28;20179;-70
2021/10/12 01:50:11;;;;;;;0.40;0.40;;;10.60;98.50;;;;;;5053205;28;20237;-70
2021/10/12 01:52:37;;;;;;;0.32;0.32;;;10.60;98.50;;;;;;5048247;28;20706;-70
2021/10/12 01:55:04;;;;;;;0.20;0.20;;;10.50;98.50;;;;;;5048761;28;20194;-71
2021/10/12 01:57:30;;;;;;;0.32;0.32;;;10.40;98.50;;;;;;5053608;28;20187;-72
2021/10/12 01:59:56;;;;;;;0.65;0.50;;;10.40;98.50;;;;;;5045097;28;20186;-73
2021/10/12 02:02:22;;;;;;;0.43;0.30;;;10.20;98.30;;;;;;5052407;28;20188;-73
2021/10/12 02:04:47;;;;;;;0.30;0.30;;;10.00;98.30;;;;;;5047977;28;20186;-73
2021/10/12 02:07:13;;;;;;;0.30;0.30;;;9.90;98.40;;;;;;5048055;28;20180;-73
2021/10/12 02:09:39;;;;;;;0.30;0.30;;;9.80;98.50;;;;;;5052659;28;20237;-73
2021/10/12 02:12:05;;;;;;;0.30;0.30;;;9.70;98.50;;;;;;5052465;28;20184;-73
2021/10/12 02:14:31;;;;;;;0.25;0.25;;;9.70;98.50;;;;;;5049074;28;20288;-73
2021/10/12 02:16:56;;;;;;;0.40;0.40;;;9.60;98.50;;;;;;5052532;28;20626;-73
2021/10/12 02:19:22;;;;;;;0.32;0.32;;;9.50;98.50;;;;;;5056320;28;20262;-72
2021/10/12 02:21:48;;;;;;;0.40;0.40;;;9.40;98.50;;;;;;5042177;28;20266;-73
2021/10/12 02:24:14;;;;;;;0.38;0.38;;;9.40;98.50;;;;;;5044995;28;20196;-72
2021/10/12 02:26:40;;;;;;;1.02;0.28;;;9.30;98.50;;;;;;5043898;28;20662;-73
2021/10/12 02:29:05;;;;;;;0.30;0.30;;;9.30;98.50;;;;;;5051642;28;20183;-72
2021/10/12 02:31:31;;;;;;;0.60;0.60;;;9.20;98.50;;;;;;5056571;28;20569;-73
2021/10/12 02:33:57;;;;;;;0.22;0.22;;;9.20;98.50;;;;;;5046892;28;20216;-73
2021/10/12 02:36:23;;;;;;;0.47;0.47;;;9.20;98.50;;;;;;5052834;28;20263;-73
2021/10/12 02:38:49;;;;;;;0.43;0.43;;;;;;;;;;5054654;28;20182;-72
2021/10/12 02:41:15;;;;;;;0.30;0.30;;;9.10;98.50;;;;;;5049298;28;20188;-73
2021/10/12 02:43:40;;;;;;;2.72;0.40;;;9.00;98.50;;;;;;5056722;28;20241;-72
2021/10/12 02:46:06;;;;;;;0.20;0.20;;;9.00;98.50;;;;;;5053432;28;20219;-72
2021/10/12 02:48:32;;;;;;;0.30;0.30;;;9.00;98.50;;;;;;5048386;28;20287;-73
2021/10/12 02:50:58;;;;;;;0.30;0.30;;;9.00;98.50;;;;;;5053845;28;20274;-72
2021/10/12 02:53:24;;;;;;;0.30;0.30;;;8.90;98.50;;;;;;5053172;28;20210;-72
2021/10/12 02:55:49;;;;;;;0.30;0.30;;;8.90;98.50;;;;;;5050989;28;20184;-73
2021/10/12 02:58:15;;;;;;;0.40;0.40;;;8.90;98.50;;;;;;5056983;28;20173;-72
2021/10/12 03:00:41;;;;;;;0.20;0.20;;;8.80;98.50;;;;;;5051268;28;20563;-73
2021/10/12 03:03:10;;;;;;;0.30;0.30;;;8.70;98.50;;;;;;5053545;28;20187;-72
2021/10/12 03:05:37;;;;;;;0.40;0.40;;;8.70;98.50;;;;;;5055187;28;20568;-73
2021/10/12 03:08:03;;;;;;;0.33;0.33;;;8.70;98.50;;;;;;5052733;28;20205;-72
2021/10/12 03:10:29;;;;;;;0.30;0.30;;;8.70;98.50;;;;;;5060104;28;20195;-73
2021/10/12 03:12:55;;;;;;;0.30;0.30;;;8.70;98.50;;;;;;5051524;28;20979;-73
2021/10/12 03:15:20;;;;;;;0.30;0.30;;;8.60;98.50;;;;;;5056080;28;20175;-73
2021/10/12 03:17:46;;;;;;;0.20;0.20;;;8.60;98.50;;;;;;5055028;28;20612;-73
2021/10/12 03:20:12;;;;;;;0.23;0.23;;;8.60;98.50;;;;;;5051711;28;20187;-73
2021/10/12 03:22:38;;;;;;;0.30;0.30;;;8.50;98.50;;;;;;5058835;28;20569;-72
2021/10/12 03:25:05;;;;;;;0.20;0.20;;;8.50;98.50;;;;;;5054577;28;20179;-72
2021/10/12 03:27:30;;;;;;;0.30;0.30;;;8.50;98.50;;;;;;5055812;28;20190;-73
2021/10/12 03:29:56;;;;;;;0.27;0.27;;;8.50;98.50;;;;;;5050001;28;20574;-73
2021/10/12 03:32:22;;;;;;;0.20;0.20;;;8.50;98.50;;;;;;5057275;28;20272;-73
2021/10/12 03:34:47;;;;;;;0.20;0.20;;;8.40;98.50;;;;;;5047823;28;20183;-72
2021/10/12 03:37:13;;;;;;;0.30;0.30;;;8.40;98.50;;;;;;5050526;28;20183;-72
2021/10/12 03:39:39;;;;;;;0.23;0.23;;;8.40;98.50;;;;;;5052460;28;20176;-73
2021/10/12 03:42:05;;;;;;;0.30;0.30;;;8.40;98.50;;;;;;5057663;28;20552;-73
2021/10/12 03:44:31;;;;;;;0.10;0.10;;;8.40;98.50;;;;;;5057821;28;20191;-73
2021/10/12 03:46:57;;;;;;;0.30;0.30;;;8.40;98.50;;;;;;5052074;28;20183;-73
2021/10/12 03:49:23;;;;;;;0.20;0.20;;;8.40;98.50;;;;;;5049933;28;20245;-71
2021/10/12 03:51:48;;;;;;;0.20;0.20;;;8.30;98.50;;;;;;5054368;28;20260;-70
2021/10/12 03:54:14;;;;;;;0.20;0.20;;;8.30;98.50;;;;;;5050057;28;20243;-71
2021/10/12 03:56:41;;;;;;;0.40;0.20;;;8.30;98.50;;;;;;5053315;28;20181;-70
2021/10/12 03:59:07;;;;;;;0.27;0.27;;;8.20;98.50;;;;;;5048416;28;20183;-70
2021/10/12 04:01:33;;;;;;;0.20;0.20;;;8.20;98.50;;;;;;5049402;28;20700;-70
2021/10/12 04:04:00;;;;;;;0.20;0.20;;;8.20;98.50;;;;;;5054300;28;20196;-70
2021/10/12 04:06:26;;;;;;;0.20;0.20;;;8.20;98.50;;;;;;5043490;28;20188;-70
2021/10/12 04:08:51;;;;;;;1.07;0.40;;;8.10;98.50;;;;;;5050513;28;20187;-70
2021/10/12 04:11:17;;;;;;;0.30;0.30;;;8.10;98.50;;;;;;5088034;28;20222;-71
2021/10/12 04:13:43;;;;;;;0.40;0.40;;;8.10;98.50;;;;;;5053632;28;20744;-70
2021/10/12 04:16:09;;;;;;;0.40;0.40;;;8.10;98.50;;;;;;5049034;28;20178;-70
2021/10/12 04:18:34;;;;;;;0.40;0.40;;;8.10;98.50;;;;;;5055115;28;20175;-70
2021/10/12 04:21:00;;;;;;;0.30;0.30;;;8.10;98.50;;;;;;5048414;28;20238;-70
2021/10/12 04:23:26;;;;;;;7.63;0.30;;;8.10;98.50;;;;;;5055173;28;20215;-70
2021/10/12 04:25:51;;;;;;;0.20;0.20;;;8.00;98.50;;;;;;5044623;28;20196;-70
2021/10/12 04:28:17;;;;;;;0.20;0.20;;;8.00;98.50;;;;;;5048331;28;20178;-69
2021/10/12 04:30:45;;;;;;;0.30;0.30;;;8.00;98.50;;;;;;5049903;28;20183;-69
2021/10/12 04:33:14;;;;;;;0.30;0.30;;;8.00;98.50;;;;;;5049746;28;20645;-69
2021/10/12 04:35:40;;;;;;;0.20;0.20;;;8.00;98.50;;;;;;5044285;28;20620;-71
2021/10/12 04:38:05;;;;;;;0.20;0.20;;;8.00;98.50;;;;;;5049809;28;20688;-69
2021/10/12 04:40:32;;;;;;;2.23;0.40;;;8.00;98.50;;;;;;5052067;28;20270;-69
2021/10/12 04:42:58;;;;;;;0.20;0.20;;;8.00;98.50;;;;;;5041088;28;20326;-69
2021/10/12 04:45:24;;;;;;;0.20;0.20;;;8.00;98.50;;;;;;5047817;28;20194;-68
2021/10/12 04:47:50;;;;;;;0.30;0.30;;;8.00;98.50;;;;;;5052187;28;20184;-72
2021/10/12 04:50:16;;;;;;;0.20;0.20;;;8.00;98.50;;;;;;5051982;28;20262;-72
2021/10/12 04:52:43;;;;;;;0.30;0.30;;;8.00;98.50;;;;;;5052146;28;20287;-73
2021/10/12 04:55:09;;;;;;;0.30;0.30;;;8.00;98.50;;;;;;5048663;28;20182;-73
2021/10/12 04:57:35;;;;;;;0.30;0.30;;;8.00;98.50;;;;;;5049138;28;20274;-73
2021/10/12 05:00:01;;;;;;;0.30;0.30;;;7.90;98.50;;;;;;5050089;28;20258;-72
2021/10/12 05:02:26;;;;;;;0.33;0.33;;;8.00;98.50;;;;;;5046670;28;20208;-72
2021/10/12 05:04:52;;;;;;;0.30;0.30;;;8.00;98.50;;;;;;5048606;28;20707;-73
2021/10/12 05:07:18;;;;;;;0.30;0.30;;;8.00;98.50;;;;;;5050177;28;20240;-71
2021/10/12 05:09:46;;;;;;;0.30;0.20;;;8.00;98.50;;;;;;5048848;28;20183;-72
2021/10/12 05:12:12;;;;;;;2.60;0.40;;;7.90;98.50;;;;;;5054884;28;20190;-70
2021/10/12 05:14:38;;;;;;;0.50;0.50;;;7.90;98.50;;;;;;5050356;28;21050;-72
2021/10/12 05:17:05;;;;;;;0.47;0.47;;;8.00;98.50;;;;;;5054071;28;20654;-71
2021/10/12 05:19:32;;;;;;;0.30;0.30;;;8.00;98.50;;;;;;5051949;28;20202;-72
2021/10/12 05:21:58;;;;;;;0.30;0.30;;;7.90;98.50;;;;;;5048057;28;20261;-73
2021/10/12 05:24:24;;;;;;;1.07;0.40;;;8.00;98.50;;;;;;5048233;28;20749;-74
2021/10/12 05:26:50;;;;;;;0.40;0.40;;;8.00;98.50;;;;;;5050989;28;20183;-72
2021/10/12 05:29:15;;;;;;;0.60;0.60;;;8.00;98.50;;;;;;5019111;28;20315;-72
2021/10/12 05:31:41;;;;;;;0.50;0.50;;;8.00;98.50;;;;;;5004645;28;20272;-70
2021/10/12 05:34:07;;;;;;;0.40;0.40;;;8.00;98.50;;;;;;5002579;28;20217;-68
2021/10/12 05:36:33;;;;;;;0.97;0.70;;;8.00;98.50;;;;;;5004609;28;20181;-69
2021/10/12 05:38:59;;;;;;;0.97;0.70;;;8.10;98.50;;;;;;5005760;28;20881;-73
2021/10/12 05:41:26;;;;;;;0.50;0.50;;;8.10;98.50;;;;;;5002830;28;20263;-71
2021/10/12 05:43:52;;;;;;;0.37;0.37;;;8.10;98.50;;;;;;5016101;28;20783;-72
2021/10/12 05:46:18;;;;;;;0.77;0.57;;;8.10;98.50;;;;;;5003197;28;20682;-70
2021/10/12 05:48:44;;;;;;;0.37;0.37;;;8.10;98.50;;;;;;5003858;28;20211;-71
2021/10/12 05:51:11;;;;;;;0.50;0.50;;;8.10;98.50;;;;;;5004140;28;20187;-71
2021/10/12 05:53:45;;;;;;;0.30;0.30;;;8.10;98.50;;;;;;5004562;28;20220;-72
2021/10/12 05:59:02;;;;;;;0.20;0.20;;;8.10;98.50;;;;;;5002379;28;20200;-72
2021/10/12 06:01:28;;;;;;;0.40;0.40;;;8.10;98.50;;;;;;5002808;28;20607;-72
2021/10/12 06:03:54;;;;;;;0.27;0.27;;;8.10;98.50;;;;;;5003217;28;20209;-72
2021/10/12 06:06:20;;;;;;;0.40;0.40;;;8.20;98.50;;;;;;5002495;28;20186;-72
2021/10/12 06:08:45;;;;;;;0.40;0.40;;;8.20;98.50;;;;;;5002637;28;20203;-73
2021/10/12 06:11:11;;;;;;;0.30;0.30;;;8.20;98.50;;;;;;4986120;28;20204;-73
2021/10/12 06:13:39;;;;;;;0.20;0.20;;;8.20;98.50;;;;;;5002569;28;20213;-73
2021/10/12 06:16:05;;;;;;;0.40;0.40;;;8.20;98.50;;;;;;4986330;28;20196;-71
2021/10/12 06:18:31;;;;;;;0.30;0.30;;;8.20;98.50;;;;;;5002547;28;20185;-72
2021/10/12 06:20:57;;;;;;;0.33;0.33;;;8.20;98.50;;;;;;4986566;28;20181;-72
2021/10/12 06:23:24;;;;;;;0.37;0.37;;;8.20;98.50;;;;;;4989648;28;20257;-73
2021/10/12 06:25:53;;;;;;;0.93;0.70;;;8.30;98.50;;;;;;5006678;28;20628;-72
2021/10/12 06:28:20;;;;;;;0.40;0.40;;;8.20;98.50;;;;;;4989882;28;20189;-73
2021/10/12 06:30:46;;;;;;;0.47;0.47;;;8.20;98.50;;;;;;5005423;28;20185;-72
2021/10/12 06:33:13;;;;;;;0.37;0.37;;;8.20;98.50;;;;;;4990031;28;20209;-72
2021/10/12 06:35:39;;;;;;;0.50;0.50;;;8.20;98.50;;;;;;4995111;28;20196;-72
2021/10/12 06:38:07;;;;;;;0.40;0.40;;;8.20;98.50;;;;;;5007809;28;20181;-72
2021/10/12 06:40:33;;;;;;;0.57;0.57;;;8.20;98.50;;;;;;5006997;28;20189;-72
2021/10/12 06:43:00;;;;;;;0.30;0.30;;;8.20;98.50;;;;;;5009012;28;20215;-73
2021/10/12 06:45:26;;;;;;;0.50;0.50;;;8.30;98.50;;;;;;5006015;28;20247;-72
2021/10/12 06:47:52;;;;;;;0.30;0.30;;;8.30;98.50;;;;;;5007217;28;20193;-72
2021/10/12 06:50:20;;;;;;;0.30;0.30;;;8.30;98.50;;;;;;5008712;28;20195;-73
2021/10/12 06:52:46;;;;;;;0.50;0.50;;;8.30;98.50;;;;;;5007266;28;20802;-72
2021/10/12 06:55:14;;;;;;;1.07;0.80;;;8.30;98.50;;;;;;5007530;28;20663;-72
2021/10/12 06:57:40;;;;;;;0.93;0.50;;;8.30;98.50;;;;;;5007212;28;20181;-72
2021/10/12 07:00:11;;;;;;;0.83;0.60;;;8.30;98.50;;;;;;5007651;28;20181;-72
2021/10/12 07:02:37;;;;;;;0.43;0.43;;;8.30;98.50;;;;;;5005728;28;20192;-71
2021/10/12 07:05:04;;;;;;;0.47;0.47;;;8.30;98.50;;;;;;5004525;28;20199;-74
2021/10/12 07:07:31;;;;;;;0.30;0.30;;;8.30;98.50;;;;;;5004569;28;20189;-71
2021/10/12 07:09:57;;;;;;;0.50;0.50;;;8.30;98.50;;;;;;4999860;28;20192;-72
2021/10/12 07:12:23;;;;;;;0.43;0.43;;;8.30;98.50;;;;;;5003867;28;20196;-71
2021/10/12 07:14:49;;;;;;;4.83;0.30;;;8.30;98.50;;;;;;5005427;28;20272;-70
2021/10/12 07:17:15;;;;;;;1.03;0.50;;;8.30;98.50;;;;;;5005819;28;20212;-69
2021/10/12 07:19:40;;;;;;;0.30;0.30;;;8.30;98.50;;;;;;5007681;28;20181;-69
2021/10/12 07:22:06;;;;;;;2.47;0.50;;;8.40;98.50;;;;;;5005097;28;20181;-71
2021/10/12 07:24:32;;;;;;;0.50;0.50;;;8.40;98.50;;;;;;5004821;28;20667;-75
2021/10/12 07:26:58;;;;;;;0.47;0.47;;;8.50;98.50;;;;;;5019933;28;20192;-72
2021/10/12 07:29:23;;;;;;;0.38;0.38;;;8.50;98.50;;;;;;5003290;28;20181;-71
2021/10/12 07:31:49;;;;;;;1.33;0.50;;;8.60;98.50;;;;;;5006298;28;20190;-72
2021/10/12 07:34:15;;;;;;;0.50;0.50;;;8.60;98.50;;;;;;5005484;28;20240;-72
2021/10/12 07:36:41;;;;;;;1.13;0.70;;;8.60;98.50;;;;;;5004125;28;20192;-72
2021/10/12 07:39:08;;;;;;;0.73;0.73;;;8.60;98.50;;;;;;5005998;28;20181;-72
2021/10/12 07:41:34;;;;;;;0.97;0.87;;;8.60;98.50;;;;;;5002907;28;20206;-71
2021/10/12 07:44:00;;;;;;;4.10;0.57;;;8.60;98.50;;;;;;5003878;28;20954;-71
2021/10/12 07:46:26;;;;;;;0.60;0.60;;;8.60;98.50;;;;;;4999877;28;20185;-72
2021/10/12 07:48:56;;;;;;;0.73;0.63;;;8.70;98.50;;;;;;5000370;28;20326;-72
2021/10/12 07:51:22;;;;;;;0.90;0.90;;;8.70;98.50;;;;;;5001322;28;20258;-72
2021/10/12 07:53:47;;;;;;;0.63;0.63;;;8.70;98.50;;;;;;5004316;28;20216;-72
2021/10/12 07:56:19;;;;;;;1.43;0.83;;;8.70;98.50;;;;;;5004606;28;20827;-73
2021/10/12 07:58:45;;;;;;;2.00;1.10;;;8.70;98.50;;;;;;5003425;28;20272;-72
2021/10/12 08:01:10;;;;;;;0.77;0.77;;;8.70;98.50;;;;;;5004250;28;20287;-72
2021/10/12 08:03:36;;;;;;;2.00;1.03;;;8.70;98.50;;;;;;5004408;28;20192;-72
2021/10/12 08:06:02;;;;;;;1.00;1.00;;;8.70;98.50;;;;;;5006024;28;20185;-72
2021/10/12 08:08:29;;;;;;;0.67;0.67;;;8.70;98.50;;;;;;5003815;28;20205;-72
2021/10/12 08:10:55;;;;;;;0.93;0.90;;;8.80;98.50;;;;;;5000043;28;20193;-72
2021/10/12 08:13:22;;;;;;;0.63;0.63;;;8.80;98.50;;;;;;5005812;28;20274;-72
2021/10/12 08:15:53;;;;;;;0.83;0.83;;;8.80;98.50;;;;;;5000628;28;20778;-73
2021/10/12 08:18:20;;;;;;;0.87;0.87;;;8.80;98.50;;;;;;5002164;28;20201;-72
2021/10/12 08:20:49;;;;;;;4.17;0.93;;;8.80;98.50;;;;;;5002742;28;20204;-73
2021/10/12 08:23:15;;;;;;;1.20;1.10;;;8.80;98.50;;;;;;5003019;28;20193;-72
2021/10/12 08:25:41;;;;;;;1.43;0.70;;;8.80;98.50;;;;;;5002630;28;20192;-73
2021/10/12 08:28:07;;;;;;;0.80;0.80;;;;;;;;;;5002884;28;20580;-73
2021/10/12 08:30:33;;;;;;;1.13;1.10;;;8.90;98.50;;;;;;5003062;28;20185;-74
2021/10/12 08:32:59;;;;;;;1.10;1.10;;;8.90;98.50;;;;;;5002433;28;20244;-73
2021/10/12 08:35:24;;;;;;;1.23;1.00;;;8.80;98.50;;;;;;5001706;28;20535;-73
2021/10/12 08:37:50;;;;;;;5.20;0.70;;;8.90;98.50;;;;;;5002054;28;20918;-73
2021/10/12 08:40:17;;;;;;;1.15;1.15;;;8.80;98.50;;;;;;4998516;28;20247;-73
2021/10/12 08:42:49;;;;;;;1.43;0.97;;;8.90;98.50;;;;;;5002953;28;20590;-73
2021/10/12 08:45:15;;;;;;;1.10;1.07;;;8.80;98.50;;;;;;5002214;28;20192;-74
2021/10/12 08:47:43;;;;;;;0.70;0.70;;;8.80;98.50;;;;;;5003884;28;20181;-72
2021/10/12 08:50:11;;;;;;;0.70;0.70;;;8.80;98.50;;;;;;5002583;28;20181;-75
2021/10/12 08:52:37;;;;;;;0.60;0.60;;;8.80;98.50;;;;;;5003355;28;20621;-73
2021/10/12 08:55:04;;;;;;;0.93;0.93;;;8.80;98.50;;;;;;5003895;28;20247;-71
2021/10/12 08:57:39;;;;;;;1.00;1.00;;;8.80;98.50;;;;;;5002327;28;20196;-72
2021/10/12 09:00:28;;;;;;;1.40;1.40;;;8.80;98.50;;;;;;5003304;28;20571;-68
2021/10/12 09:06:03;;;;;;;1.77;0.60;;;8.80;98.50;;;;;;5003350;28;20306;-68
2021/10/12 09:08:32;;;;;;;1.10;1.00;;;8.80;98.50;;;;;;5003685;28;20188;-71
2021/10/12 09:10:59;;;;;;;1.00;1.00;;;8.80;98.50;;;;;;4997967;28;20193;-71
2021/10/12 09:13:26;;;;;;;1.17;1.17;;;8.80;98.50;;;;;;4999271;28;20228;-72
2021/10/12 09:16:03;;;;;;;0.83;0.83;;;8.80;98.50;;;;;;5004452;28;20209;-71
2021/10/12 09:18:57;;;;;;;0.70;0.70;;;8.80;98.50;;;;;;5004801;28;20189;-72
2021/10/12 09:21:25;;;;;;;1.00;1.00;;;8.80;98.50;;;;;;5005411;28;20189;-71
2021/10/12 09:24:11;;;;;;;1.37;1.30;;;8.90;98.50;;;;;;5003516;28;20220;-73
2021/10/12 09:27:03;;;;;;;1.53;1.43;;;8.90;98.50;;;;;;5003881;28;20279;-73
2021/10/12 09:29:33;;;;;;;1.13;1.03;;;8.90;98.50;;;;;;5006164;28;20193;-73
2021/10/12 09:32:00;;;;;;;1.03;1.03;;;8.90;98.50;;;;;;5006699;28;20207;-73
2021/10/12 09:34:34;;;;;;;1.67;1.50;;;8.90;98.50;;;;;;5006247;28;20250;-72
2021/10/12 09:37:01;;;;;;;2.33;2.03;;;9.00;98.50;;;;;;5000334;28;20314;-72
2021/10/12 09:39:42;;;;;;;2.20;2.10;;;9.00;98.50;;;;;;5021685;28;20290;-74
2021/10/12 09:42:13;;;;;;;2.87;2.10;;;9.00;98.50;;;;;;5004782;28;20192;-72
2021/10/12 09:44:50;;;;;;;4.07;1.97;;;9.00;98.50;;;;;;5006108;28;20208;-73
2021/10/12 09:47:16;;;;;;;2.13;2.03;;;9.00;98.50;;;;;;5006705;28;20199;-71
2021/10/12 09:49:44;;;;;;;2.10;2.00;;;9.00;98.50;;;;;;5023224;28;20184;-73
2021/10/12 09:52:15;;;;;;;2.13;2.03;;;9.00;98.50;;;;;;5006265;28;20196;-73
2021/10/12 09:54:49;;;;;;;1.77;1.77;;;9.10;98.50;;;;;;5000925;28;20706;-73
2021/10/12 09:57:20;;;;;;;2.10;0.90;;;9.10;98.50;;;;;;5023372;28;20595;-73
2021/10/12 09:59:49;;;;;;;1.63;1.23;;;9.10;98.50;;;;;;5008673;28;20846;-72
2021/10/12 10:02:22;;;;;;;1.30;1.30;;;9.10;98.50;;;;;;5026538;28;20180;-74
2021/10/12 10:04:49;;;;;;;0.77;0.67;;;9.10;98.50;;;;;;5010109;28;20271;-71
2021/10/12 10:07:29;;;;;;;1.40;1.30;;;9.10;98.50;;;;;;5008064;28;20189;-72
2021/10/12 10:09:59;;;;;;;1.13;1.13;;;9.10;98.50;;;;;;5008867;28;20621;-73
2021/10/12 10:12:28;;;;;;;1.20;1.20;;;9.10;98.50;;;;;;5009043;28;20177;-73
2021/10/12 10:14:53;;;;;;;1.33;1.20;;;9.10;98.50;;;;;;5008593;28;20224;-73
2021/10/12 10:17:23;;;;;;;1.60;1.60;;;9.10;98.50;;;;;;5008273;28;20235;-71
2021/10/12 10:19:50;;;;;;;1.63;1.30;;;9.10;98.50;;;;;;5008273;28;20181;-71
2021/10/12 10:22:51;;;;;;;1.30;1.30;;;9.10;98.50;;;;;;5008055;28;20633;-71
2021/10/12 10:25:29;;;;;;;1.40;1.40;;;9.10;98.50;;;;;;5015047;28;20189;-71
2021/10/12 10:28:18;;;;;;;1.70;1.60;;;9.00;98.50;;;;;;5007374;28;20184;-73
2021/10/12 10:30:53;;;;;;;1.57;1.47;;;9.00;98.50;;;;;;5008430;28;20205;-72
2021/10/12 10:33:35;;;;;;;1.73;1.63;;;9.10;98.50;;;;;;5008380;28;20219;-73
2021/10/12 10:36:11;;;;;;;1.40;1.33;;;9.10;98.50;;;;;;5008014;28;20183;-74
2021/10/12 10:38:44;;;;;;;1.37;1.37;;;9.20;98.50;;;;;;5008782;28;20670;-73
2021/10/12 10:41:14;;;;;;;2.27;1.67;;;9.20;98.50;;;;;;5007721;28;20173;-72
2021/10/12 10:43:49;;;;;;;1.45;1.35;;;9.20;98.50;;;;;;5007629;28;20239;-72
2021/10/12 10:46:35;;;;;;;2.40;1.43;;;9.20;98.50;;;;;;5007650;28;20176;-72
2021/10/12 10:49:16;;;;;;;1.53;1.37;;;9.20;98.50;;;;;;5007672;28;20181;-72
2021/10/12 10:51:59;;;;;;;1.73;1.30;;;9.30;98.50;;;;;;5009157;28;20283;-69
2021/10/12 10:54:37;;;;;;;1.13;1.13;;;9.30;98.50;;;;;;5005232;28;20303;-71
2021/10/12 10:57:20;;;;;;;1.37;0.83;;;9.30;98.50;;;;;;5006243;28;20172;-71
2021/10/12 10:59:47;;;;;;;1.00;1.00;;;9.30;98.50;;;;;;5006582;28;20260;-70
2021/10/12 11:02:33;;;;;;;1.13;1.13;;;9.40;98.50;;;;;;5004387;28;20187;-71
2021/10/12 11:04:59;;;;;;;1.23;1.13;;;9.40;98.50;;;;;;5004285;28;20189;-71
2021/10/12 11:07:29;;;;;;;1.00;1.00;;;9.40;98.50;;;;;;5006339;28;20208;-71
2021/10/12 11:09:56;;;;;;;1.30;0.90;;;9.40;98.50;;;;;;5003961;28;20185;-71
2021/10/12 11:12:27;;;;;;;0.85;0.85;;;9.40;98.50;;;;;;5005151;28;20200;-71
2021/10/12 11:15:02;;;;;;;0.75;0.75;;;9.40;98.50;;;;;;5003127;28;20224;-71
2021/10/12 11:17:28;;;;;;;0.90;0.90;;;9.40;98.50;;;;;;5005807;28;20189;-70
2021/10/12 11:20:17;;;;;;;1.03;1.03;;;9.50;98.50;;;;;;5005495;28;20207;-69
2021/10/12 11:22:44;;;;;;;0.93;0.93;;;9.50;98.50;;;;;;5002747;28;20207;-70
2021/10/12 11:25:11;;;;;;;1.57;1.27;;;9.50;98.50;;;;;;5005892;28;20187;-70
2021/10/12 11:27:44;;;;;;;0.90;0.90;;;9.50;98.50;;;;;;5006120;28;20242;-70
2021/10/12 11:30:14;;;;;;;5.07;1.20;;;9.50;98.50;;;;;;5005222;28;20255;-71
2021/10/12 11:32:41;;;;;;;1.17;0.80;;;9.60;98.50;;;;;;5005899;28;20623;-71
2021/10/12 11:35:09;;;;;;;2.25;1.15;;;9.50;98.50;;;;;;5005149;28;20181;-70
2021/10/12 11:37:35;;;;;;;1.70;1.60;;;9.50;98.50;;;;;;5006030;28;20693;-71
2021/10/12 11:40:22;;;;;;;1.63;1.30;;;9.60;98.50;;;;;;5002896;28;20181;-70
2021/10/12 11:42:48;;;;;;;1.95;1.85;;;9.60;98.50;;;;;;5018063;28;20213;-71
2021/10/12 11:45:14;;;;;;;2.58;1.55;;;9.60;98.50;;;;;;5004048;28;20209;-71
2021/10/12 11:47:40;;;;;;;1.77;1.65;;;9.50;98.50;;;;;;5004703;28;20268;-71
2021/10/12 11:50:14;;;;;;;1.30;1.20;;;9.50;98.50;;;;;;5004381;28;20185;-71
2021/10/12 11:52:41;;;;;;;2.88;2.50;;;9.50;98.50;;;;;;5004494;28;20207;-71
2021/10/12 11:55:09;;;;;;;0.90;0.90;;;9.50;98.50;;;;;;5004299;28;20280;-71
2021/10/12 11:57:36;;;;;;;1.35;1.35;;;9.50;98.50;;;;;;5005319;28;20184;-71
2021/10/12 12:00:02;;;;;;;2.92;1.30;;;9.60;98.50;;;;;;5000903;28;20181;-71
2021/10/12 12:02:31;;;;;;;4.93;1.50;;;9.50;98.50;;;;;;5006196;28;20518;-71
2021/10/12 12:05:01;;;;;;;1.27;1.17;;;9.60;98.50;;;;;;5004259;28;20184;-71
2021/10/12 12:07:33;;;;;;;1.07;1.07;;;9.60;98.50;;;;;;5002995;28;20190;-71
2021/10/12 12:10:00;;;;;;;0.95;0.95;;;9.60;98.50;;;;;;5002790;28;20545;-70
2021/10/12 12:12:26;;;;;;;1.40;1.35;;;9.60;98.50;;;;;;5003063;28;20188;-69
2021/10/12 12:14:53;;;;;;;1.10;1.00;;;9.60;98.50;;;;;;5003230;28;20224;-70
2021/10/12 12:17:23;;;;;;;1.58;1.48;;;9.60;98.50;;;;;;5000272;28;20193;-69
2021/10/12 12:19:54;;;;;;;0.82;0.82;;;9.60;98.50;;;;;;5001921;28;20185;-69
2021/10/12 12:22:25;;;;;;;0.88;0.88;;;9.60;98.50;;;;;;5018710;28;20189;-69
2021/10/12 12:25:15;;;;;;;1.05;1.05;;;9.50;98.50;;;;;;5003541;28;20185;-69
2021/10/12 12:28:00;;;;;;;0.90;0.90;;;9.60;98.50;;;;;;5001808;28;20240;-69
2021/10/12 12:30:41;;;;;;;1.05;1.00;;;9.50;98.50;;;;;;5003057;28;20272;-71
2021/10/12 12:33:07;;;;;;;0.90;0.90;;;9.60;98.50;;;;;;5003123;28;20215;-70
2021/10/12 12:35:41;;;;;;;0.60;0.60;;;9.50;98.50;;;;;;5002206;28;20205;-71
2021/10/12 12:38:07;;;;;;;1.10;1.10;;;9.50;98.50;;;;;;5003707;28;20181;-71
2021/10/12 12:40:35;;;;;;;0.50;0.50;;;9.60;98.50;;;;;;5003629;28;20181;-69
2021/10/12 12:43:22;;;;;;;0.50;0.50;;;9.60;98.50;;;;;;5002543;28;20189;-71
2021/10/12 12:46:07;;;;;;;0.82;0.70;;;9.60;98.50;;;;;;5002171;28;20255;-71
2021/10/12 12:48:32;;;;;;;0.50;0.50;;;9.50;98.50;;;;;;5017180;28;20193;-71
2021/10/12 12:51:03;;;;;;;3.20;0.80;;;9.60;98.50;;;;;;5002157;28;20276;-70
2021/10/12 12:53:49;;;;;;;0.50;0.50;;;9.60;98.50;;;;;;5002167;28;20270;-70
2021/10/12 12:56:19;;;;;;;0.60;0.60;;;9.60;98.50;;;;;;4999981;28;20787;-71
2021/10/12 12:58:46;;;;;;;1.80;0.52;;;9.60;98.50;;;;;;5003237;28;20196;-70
2021/10/12 13:01:19;;;;;;;0.80;0.80;;;9.50;98.50;;;;;;5000377;28;20185;-71
2021/10/12 13:03:52;;;;;;;0.73;0.73;;;9.50;98.50;;;;;;5004124;28;20203;-71
2021/10/12 13:06:17;;;;;;;0.57;0.57;;;9.50;98.50;;;;;;5002451;28;20176;-71